Time;durP1;ratioP1;P1;durP2;ratioP2;P2;SDS_P1;SDS_P2;PMS_P1;PMS_P2;Temp;Humidity;BMP_temperature;BMP_pressure;BME280_temperature;BME280_humidity;BME280_pressure;Samples;Min_cycle;Max_cycle;Signal;HPM_P1;HPM_P2
2021/12/14 00:00:17;;;;;;;10.02;7.30;;;;;;;10.14;62.51;102111.41;688094;28;1187;-80
2021/12/14 00:00:52;;;;;;;8.80;6.85;;;;;;;10.10;62.69;102104.28;687685;28;910;-80
2021/12/14 00:01:19;;;;;;;10.20;7.03;;;;;;;10.11;62.58;102107.75;693261;28;2576;-80
2021/12/14 00:01:48;;;;;;;10.65;7.07;;;;;;;10.14;62.66;102113.16;690794;28;1593;-80
2021/12/14 00:02:11;;;;;;;9.18;6.85;;;;;;;10.12;62.92;102107.84;682669;28;2572;-80
2021/12/14 00:02:33;;;;;;;9.48;7.20;;;;;;;10.13;62.76;102108.72;682574;29;2644;-79
2021/12/14 00:02:55;;;;;;;10.02;7.38;;;;;;;10.13;62.61;102111.31;685370;28;1232;-79
2021/12/14 00:03:18;;;;;;;9.90;7.30;;;;;;;10.11;62.75;102103.44;689889;28;1213;-80
2021/12/14 00:03:43;;;;;;;9.90;6.70;;;;;;;10.15;62.59;102110.59;689697;28;2686;-80
2021/12/14 00:04:10;;;;;;;9.20;6.50;;;;;;;10.12;62.76;102104.31;690747;28;1243;-80
2021/12/14 00:04:47;;;;;;;9.05;6.38;;;;;;;10.14;62.78;102111.41;688081;28;2468;-79
2021/12/14 00:05:10;;;;;;;7.90;6.30;;;;;;;10.10;62.43;102103.34;685769;28;1520;-80
2021/12/14 00:05:33;;;;;;;9.27;6.40;;;;;;;10.10;62.65;102104.28;682891;28;1106;-79
2021/12/14 00:05:54;;;;;;;9.73;6.53;;;;;;;10.13;62.66;102103.50;682800;29;1269;-80
2021/12/14 00:06:17;;;;;;;8.85;6.78;;;;;;;10.15;62.44;102105.38;682553;28;1421;-80
2021/12/14 00:06:40;;;;;;;7.95;6.60;;;;;;;10.21;62.55;102111.75;685515;28;1271;-81
2021/12/14 00:07:06;;;;;;;8.25;6.63;;;;;;;10.16;62.52;102106.28;685443;28;1228;-80
2021/12/14 00:07:27;;;;;;;8.35;6.45;;;;;;;10.14;62.55;102100.97;685910;28;1036;-80
2021/12/14 00:08:01;;;;;;;8.50;6.35;;;;;;;10.17;62.44;102104.56;684735;28;1115;-80
2021/12/14 00:08:49;;;;;;;8.80;6.50;;;;;;;10.11;62.44;102103.44;683707;28;1515;-80
2021/12/14 00:09:22;;;;;;;9.15;6.63;;;;;;;10.13;62.66;102096.59;679789;29;1092;-80
2021/12/14 00:09:49;;;;;;;8.70;6.65;;;;;;;10.20;62.50;102115.16;683216;28;961;-80
2021/12/14 00:12:39;;;;;;;7.18;6.20;;;;;;;10.18;62.27;102096.81;686569;28;993;-80
2021/12/14 00:13:09;;;;;;;10.32;6.35;;;;;;;10.20;62.29;102104.72;687823;28;1261;-80
2021/12/14 00:14:27;;;;;;;8.38;6.20;;;;;;;10.25;62.56;102113.69;687686;28;989;-79
2021/12/14 00:15:02;;;;;;;7.20;6.45;;;;;;;10.21;62.34;102119.56;680015;28;1306;-81
2021/12/14 00:15:11;;;;;;;8.63;6.30;;;;;;;10.20;62.72;102108.22;687948;28;1228;-81
2021/12/14 00:15:32;;;;;;;7.70;6.07;;;;;;;10.16;62.59;102106.28;688180;28;823;-80
2021/12/14 00:15:54;;;;;;;8.13;6.53;;;;;;;10.13;62.68;102108.72;685067;28;1209;-80
2021/12/14 00:16:15;;;;;;;8.50;6.40;;;;;;;10.16;62.67;102103.69;684050;28;1350;-80
2021/12/14 00:16:36;;;;;;;9.68;6.40;;;;;;;10.15;62.68;102102.78;685349;28;696;-80
2021/12/14 00:16:59;;;;;;;9.40;6.30;;;;;;;10.10;62.56;102101.66;685328;28;1722;-79
2021/12/14 00:17:24;;;;;;;9.27;6.20;;;;;;;10.18;62.56;102114.19;685205;28;1184;-80
2021/12/14 00:17:53;;;;;;;7.82;5.93;;;;;;;10.07;62.52;102093.66;689190;28;1999;-80
2021/12/14 00:18:14;;;;;;;9.52;5.93;;;;;;;10.11;62.63;102094.72;688029;28;1029;-80
2021/12/14 00:18:35;;;;;;;8.57;5.90;;;;;;;10.19;62.41;102113.38;687398;28;1361;-80
2021/12/14 00:18:56;;;;;;;8.45;6.03;;;;;;;10.17;62.83;102105.47;688066;28;1101;-80
2021/12/14 00:19:17;;;;;;;6.87;6.00;;;;;;;10.14;62.62;102100.97;690959;28;1317;-80
2021/12/14 00:19:38;;;;;;;8.30;6.10;;;;;;;10.19;62.38;102105.56;688813;28;1284;-80
2021/12/14 00:20:36;;;;;;;8.35;6.18;;;;;;;10.20;62.41;102099.50;690877;28;1102;-80
2021/12/14 00:21:03;;;;;;;7.95;5.50;;;;;;;10.06;62.74;102086.66;682584;28;1093;-80
2021/12/14 00:21:36;;;;;;;8.68;5.68;;;;;;;10.16;62.54;102101.06;679198;29;1687;-80
2021/12/14 00:22:05;;;;;;;8.50;5.80;;;;;;;10.11;62.54;102089.50;681975;28;1619;-80
2021/12/14 00:22:36;;;;;;;8.45;5.88;;;;;;;10.07;62.71;102090.16;687694;28;1401;-80
2021/12/14 00:24:11;;;;;;;7.38;5.60;;;;;;;10.21;62.15;102093.47;688136;28;1021;-79
2021/12/14 00:24:33;;;;;;;6.13;5.53;;;;;;;10.20;62.13;102102.13;685033;28;1258;-80
2021/12/14 00:24:56;;;;;;;6.45;5.75;;;;;;;10.13;62.40;102088.75;682532;29;1293;-80
2021/12/14 00:25:17;;;;;;;6.45;5.63;;;;;;;10.15;62.18;102081.91;688058;28;1326;-80
2021/12/14 00:25:41;;;;;;;7.40;5.50;;;;;;;10.23;62.23;102104.91;688157;28;1196;-80
2021/12/14 00:26:02;;;;;;;7.10;5.40;;;;;;;10.25;62.34;102105.88;690639;28;1169;-80
2021/12/14 00:26:23;;;;;;;5.80;5.20;;;;;;;10.21;62.08;102094.34;686580;28;1415;-80
2021/12/14 00:26:49;;;;;;;5.57;4.97;;;;;;;10.21;62.11;102093.47;685425;28;1281;-80
2021/12/14 00:27:11;;;;;;;6.88;5.40;;;;;;;10.14;62.08;102081.84;687716;28;1211;-80
2021/12/14 00:27:34;;;;;;;8.43;5.95;;;;;;;10.17;62.11;102091.50;685366;28;851;-80
2021/12/14 00:27:57;;;;;;;7.40;5.80;;;;;;;10.20;62.22;102089.09;692784;28;1263;-80
2021/12/14 00:28:30;;;;;;;6.82;5.25;;;;;;;10.14;62.24;102082.72;692987;28;1150;-80
2021/12/14 00:28:51;;;;;;;6.07;5.22;;;;;;;10.23;62.28;102104.91;693732;28;803;-80
2021/12/14 00:29:28;;;;;;;6.57;5.50;;;;;;;10.18;61.86;102086.38;693486;28;1328;-79
2021/12/14 00:29:58;;;;;;;6.25;5.10;;;;;;;10.18;62.11;102096.81;687003;28;1465;-80
2021/12/14 00:30:19;;;;;;;5.80;5.07;;;;;;;10.18;62.25;102095.94;685032;28;2009;-79
2021/12/14 00:30:40;;;;;;;6.20;5.40;;;;;;;10.13;62.10;102096.59;685519;28;889;-80
2021/12/14 00:31:09;;;;;;;6.45;5.53;;;;;;;10.03;62.18;102080.38;685089;28;1215;-80
2021/12/14 00:31:30;;;;;;;6.57;5.40;;;;;;;10.10;62.40;102095.53;685044;28;1562;-80
2021/12/14 00:31:56;;;;;;;5.82;5.22;;;;;;;10.10;62.43;102099.06;685496;28;1307;-80
2021/12/14 00:32:20;;;;;;;5.88;5.10;;;;;;;10.11;62.19;102093.00;685297;28;1322;-80
2021/12/14 00:32:41;;;;;;;6.22;5.13;;;;;;;10.12;62.39;102089.59;683895;28;2991;-79
2021/12/14 00:33:06;;;;;;;6.47;5.40;;;;;;;10.14;62.30;102094.88;685211;28;1416;-79
2021/12/14 00:33:32;;;;;;;6.00;5.40;;;;;;;10.11;62.21;102087.78;690348;28;932;-79
2021/12/14 00:33:56;;;;;;;6.00;5.30;;;;;;;10.05;62.19;102078.75;687857;28;1154;-80
2021/12/14 00:34:23;;;;;;;6.35;5.45;;;;;;;10.01;62.28;102077.69;684992;28;1523;-80
2021/12/14 00:34:45;;;;;;;6.00;5.40;;;;;;;10.03;62.50;102081.28;686276;28;3033;-80
2021/12/14 00:35:12;;;;;;;5.70;5.10;;;;;;;10.13;62.08;102090.47;687722;28;1106;-80
2021/12/14 00:35:33;;;;;;;5.22;4.72;;;;;;;10.10;62.21;102083.41;687950;28;1262;-80
2021/12/14 00:35:54;;;;;;;5.53;4.90;;;;;;;10.06;62.34;102085.78;690632;28;1093;-81
2021/12/14 00:36:16;;;;;;;5.73;5.00;;;;;;;10.10;62.21;102087.72;687694;28;1129;-80
2021/12/14 00:36:38;;;;;;;6.07;5.10;;;;;;;10.13;62.09;102093.97;685270;28;1326;-80
2021/12/14 00:36:59;;;;;;;6.00;5.20;;;;;;;10.09;62.19;102089.41;687712;28;1268;-80
2021/12/14 00:37:33;;;;;;;5.57;4.95;;;;;;;10.14;62.08;102090.53;684864;28;1481;-80
2021/12/14 00:37:54;;;;;;;5.85;4.97;;;;;;;10.12;62.00;102094.81;681954;28;1594;-80
2021/12/14 00:38:18;;;;;;;6.40;5.00;;;;;;;10.06;61.97;102075.34;682881;28;1320;-80
2021/12/14 00:38:42;;;;;;;5.40;4.60;;;;;;;10.09;62.06;102072.88;687852;28;1381;-79
2021/12/14 00:39:08;;;;;;;5.75;4.70;;;;;;;10.19;62.23;102093.38;684670;28;1186;-80
2021/12/14 00:39:29;;;;;;;5.38;4.80;;;;;;;10.12;61.90;102086.06;684997;28;1360;-80
2021/12/14 00:39:53;;;;;;;5.40;4.90;;;;;;;10.16;61.81;102088.03;687549;28;1280;-80
2021/12/14 00:40:33;;;;;;;5.20;4.70;;;;;;;10.13;61.87;102093.06;687904;28;1306;-80
2021/12/14 00:40:58;;;;;;;5.00;4.50;;;;;;;10.09;61.89;102080.69;685358;28;1083;-80
2021/12/14 00:41:22;;;;;;;5.07;4.57;;;;;;;10.12;61.68;102089.59;687458;28;2038;-82
2021/12/14 00:41:43;;;;;;;5.10;4.60;;;;;;;10.18;61.84;102093.34;690707;28;783;-80
2021/12/14 00:42:07;;;;;;;5.10;4.60;;;;;;;10.24;61.64;102096.25;690003;28;1274;-80
2021/12/14 00:42:28;;;;;;;5.30;4.80;;;;;;;10.17;61.52;102088.91;688366;28;1224;-80
2021/12/14 00:42:50;;;;;;;5.80;5.20;;;;;;;10.23;61.34;102099.69;692993;28;1192;-80
2021/12/14 00:43:11;;;;;;;5.90;5.30;;;;;;;10.17;61.42;102088.91;693342;28;1043;-80
2021/12/14 00:43:32;;;;;;;5.90;5.30;;;;;;;10.16;61.41;102088.03;687902;28;1128;-80
2021/12/14 00:43:54;;;;;;;5.53;4.93;;;;;;;10.15;61.19;102081.03;682680;28;1263;-79
2021/12/14 00:44:15;;;;;;;5.20;4.70;;;;;;;10.24;61.30;102094.56;688013;28;1236;-80
2021/12/14 00:44:37;;;;;;;5.13;4.50;;;;;;;10.18;61.44;102077.69;688103;28;890;-80
2021/12/14 00:44:59;;;;;;;5.13;4.60;;;;;;;10.26;61.45;102089.44;688012;28;1229;-79
2021/12/14 00:45:21;;;;;;;6.30;5.20;;;;;;;10.21;61.34;102090.88;686151;28;1171;-80
2021/12/14 00:45:43;;;;;;;5.70;5.10;;;;;;;10.17;61.48;102076.78;689083;28;1110;-79
2021/12/14 00:46:04;;;;;;;5.18;4.68;;;;;;;10.15;61.31;102073.19;687834;28;1492;-80
2021/12/14 00:46:25;;;;;;;4.50;4.10;;;;;;;10.12;61.50;102079.16;688010;28;1174;-80
2021/12/14 00:46:47;;;;;;;4.60;4.20;;;;;;;10.17;61.48;102081.06;685380;28;824;-80
2021/12/14 00:47:09;;;;;;;4.65;4.25;;;;;;;10.19;61.46;102093.38;692473;28;1205;-80
2021/12/14 00:47:29;;;;;;;5.10;4.60;;;;;;;10.14;61.55;102093.16;688379;28;1080;-80
2021/12/14 00:47:50;;;;;;;5.03;4.53;;;;;;;10.21;61.70;102106.53;687588;28;1260;-80
2021/12/14 00:48:12;;;;;;;4.95;4.45;;;;;;;10.20;61.68;102100.38;685737;28;1556;-80
2021/12/14 00:48:34;;;;;;;5.25;4.10;;;;;;;10.13;61.45;102093.06;685380;28;1224;-80
2021/12/14 00:48:56;;;;;;;5.90;4.45;;;;;;;10.12;61.58;102086.97;690800;28;1040;-80
2021/12/14 00:49:18;;;;;;;6.20;4.70;;;;;;;10.10;61.68;102086.00;684936;28;1218;-80
2021/12/14 00:49:39;;;;;;;6.03;5.10;;;;;;;10.15;61.35;102094.06;685369;28;842;-80
2021/12/14 00:50:01;;;;;;;5.65;4.90;;;;;;;10.13;61.63;102090.47;685217;28;1034;-79
2021/12/14 00:50:24;;;;;;;5.10;4.60;;;;;;;10.14;61.59;102087.94;690589;28;1086;-80
2021/12/14 00:50:51;;;;;;;4.90;4.40;;;;;;;10.15;61.39;102087.13;690729;28;822;-80
2021/12/14 00:51:12;;;;;;;4.82;4.32;;;;;;;10.15;61.21;102087.13;687819;28;1096;-80
2021/12/14 00:51:33;;;;;;;4.53;4.13;;;;;;;10.14;61.32;102082.72;690283;28;1264;-80
2021/12/14 00:51:56;;;;;;;4.88;4.28;;;;;;;10.15;61.14;102081.03;691928;28;1430;-80
2021/12/14 00:52:17;;;;;;;5.10;4.53;;;;;;;10.15;61.31;102083.63;692022;28;1276;-80
2021/12/14 00:52:40;;;;;;;5.20;4.70;;;;;;;10.21;61.67;102094.34;686008;28;1926;-80
2021/12/14 00:53:02;;;;;;;4.72;4.32;;;;;;;10.20;61.11;102082.13;685447;28;966;-80
2021/12/14 00:53:24;;;;;;;4.90;4.50;;;;;;;10.24;61.04;102096.25;687950;28;1104;-80
2021/12/14 00:53:45;;;;;;;4.80;4.40;;;;;;;10.21;61.16;102080.44;688086;28;1142;-80
2021/12/14 00:54:11;;;;;;;4.97;4.47;;;;;;;10.25;61.14;102092.81;685308;28;1163;-80
2021/12/14 00:54:32;;;;;;;5.30;4.30;;;;;;;10.28;61.08;102098.22;682713;28;1122;-80
2021/12/14 00:54:53;;;;;;;6.20;4.10;;;;;;;10.31;61.08;102093.16;687912;28;1147;-79
2021/12/14 00:55:19;;;;;;;6.00;4.17;;;;;;;10.32;60.81;102099.28;687916;28;1238;-79
2021/12/14 00:55:43;;;;;;;4.90;4.40;;;;;;;10.25;61.21;102077.19;689063;28;767;-80
2021/12/14 00:56:09;;;;;;;5.53;4.50;;;;;;;10.22;60.85;102071.78;685200;28;1010;-80
2021/12/14 00:56:33;;;;;;;6.30;4.45;;;;;;;10.32;60.82;102086.22;687649;28;1231;-80
2021/12/14 00:56:54;;;;;;;7.03;4.35;;;;;;;10.25;60.75;102079.78;685198;28;1262;-80
2021/12/14 00:57:15;;;;;;;6.03;4.10;;;;;;;10.22;61.08;102079.59;684576;28;1195;-80
2021/12/14 00:57:36;;;;;;;5.30;4.00;;;;;;;10.26;61.20;102079.00;685799;28;808;-80
2021/12/14 00:57:59;;;;;;;4.63;3.80;;;;;;;10.36;60.96;102096.91;688018;28;1512;-80
2021/12/14 00:58:21;;;;;;;4.20;3.80;;;;;;;10.34;60.67;102088.09;690782;28;1401;-80
2021/12/14 00:58:42;;;;;;;4.30;3.90;;;;;;;10.36;60.61;102093.38;682864;28;1118;-80
2021/12/14 00:59:06;;;;;;;4.35;4.00;;;;;;;10.35;61.02;102092.50;682485;28;1053;-80
2021/12/14 00:59:27;;;;;;;4.53;4.13;;;;;;;10.26;60.93;102073.78;684163;28;1217;-80
2021/12/14 00:59:48;;;;;;;4.90;4.40;;;;;;;10.27;60.64;102083.38;684721;28;1300;-80
2021/12/14 01:00:17;;;;;;;5.03;4.53;;;;;;;10.33;60.54;102088.00;686649;28;1463;-80
2021/12/14 01:00:47;;;;;;;4.72;4.32;;;;;;;10.30;60.81;102088.75;687586;28;1095;-80
2021/12/14 01:01:14;;;;;;;4.68;4.07;;;;;;;10.25;61.01;102092.81;685140;28;1100;-80
2021/12/14 01:01:42;;;;;;;5.30;4.28;;;;;;;10.25;60.77;102091.13;688549;28;803;-79
2021/12/14 01:02:21;;;;;;;5.00;4.20;;;;;;;10.27;60.84;102089.50;690819;28;775;-79
2021/12/14 01:02:44;;;;;;;4.50;4.00;;;;;;;10.34;60.93;102095.94;683944;28;1112;-80
2021/12/14 01:03:06;;;;;;;5.00;4.07;;;;;;;10.19;61.00;102082.94;682557;29;1391;-80
2021/12/14 01:03:29;;;;;;;5.43;4.03;;;;;;;10.17;60.97;102083.69;682443;28;1633;-79
2021/12/14 01:04:00;;;;;;;4.35;3.90;;;;;;;10.30;60.87;102100.91;684925;28;1198;-80
2021/12/14 01:04:32;;;;;;;4.50;4.10;;;;;;;10.30;60.87;102086.13;686607;28;2092;-80
2021/12/14 01:05:10;;;;;;;5.15;4.30;;;;;;;10.27;60.93;102079.06;689722;28;1115;-80
2021/12/14 01:05:35;;;;;;;5.72;4.20;;;;;;;10.30;60.80;102095.69;685318;28;1065;-80
2021/12/14 01:05:58;;;;;;;5.60;4.35;;;;;;;10.22;60.77;102082.22;688018;28;1179;-81
2021/12/14 01:06:23;;;;;;;5.15;4.05;;;;;;;10.19;60.88;102087.28;686134;28;1087;-80
2021/12/14 01:06:46;;;;;;;4.65;3.95;;;;;;;10.30;60.76;102099.19;688205;28;917;-80
2021/12/14 01:07:10;;;;;;;4.60;3.90;;;;;;;10.19;60.90;102076.84;682528;28;1401;-80
2021/12/14 01:07:31;;;;;;;4.30;3.90;;;;;;;10.26;60.87;102089.44;682654;29;1383;-80
2021/12/14 01:07:52;;;;;;;4.97;4.22;;;;;;;10.29;60.75;102094.78;687933;28;1087;-80
2021/12/14 01:08:17;;;;;;;4.47;4.00;;;;;;;10.28;60.66;102093.00;685158;28;1202;-79
2021/12/14 01:08:41;;;;;;;4.35;3.95;;;;;;;10.23;60.78;102082.34;682063;28;1375;-80
2021/12/14 01:09:05;;;;;;;4.30;3.90;;;;;;;10.26;60.92;102079.88;685356;28;1166;-80
2021/12/14 01:09:32;;;;;;;4.80;4.30;;;;;;;10.21;60.84;102062.16;685592;28;1142;-79
2021/12/14 01:09:57;;;;;;;5.28;4.50;;;;;;;10.27;60.69;102071.22;685650;28;1231;-80
2021/12/14 01:10:24;;;;;;;5.10;4.60;;;;;;;10.24;60.83;102075.38;685009;28;1217;-80
2021/12/14 01:10:52;;;;;;;4.90;4.40;;;;;;;10.25;60.74;102074.56;685237;28;733;-80
2021/12/14 01:11:19;;;;;;;5.18;4.40;;;;;;;10.21;60.93;102059.56;684673;28;1189;-80
2021/12/14 01:11:44;;;;;;;4.95;4.20;;;;;;;10.19;60.83;102058.59;686210;28;779;-80
2021/12/14 01:12:12;;;;;;;4.80;4.10;;;;;;;10.24;60.74;102070.16;685266;28;1229;-80
2021/12/14 01:12:47;;;;;;;4.45;4.05;;;;;;;10.23;60.65;102068.38;687917;28;1910;-80
2021/12/14 01:13:10;;;;;;;4.38;3.97;;;;;;;10.25;60.74;102069.34;689529;28;1426;-80
2021/12/14 01:13:33;;;;;;;5.70;4.13;;;;;;;10.18;60.84;102060.28;687701;28;1549;-79
2021/12/14 01:14:04;;;;;;;6.40;4.10;;;;;;;10.22;60.88;102071.78;685146;28;1153;-81
2021/12/14 01:14:59;;;;;;;6.40;4.35;;;;;;;10.28;60.99;102069.53;684463;28;1050;-80
2021/12/14 01:16:01;;;;;;;4.63;3.85;;;;;;;10.24;60.86;102062.34;687733;28;1088;-80
2021/12/14 01:16:50;;;;;;;5.13;4.10;;;;;;;10.29;60.80;102068.69;689790;28;1244;-80
2021/12/14 01:17:39;;;;;;;4.40;3.90;;;;;;;10.24;60.86;102071.09;690408;28;1067;-80
2021/12/14 01:18:29;;;;;;;4.68;4.20;;;;;;;10.20;60.82;102065.59;692666;28;1143;-82
2021/12/14 01:19:02;;;;;;;3.97;3.65;;;;;;;10.30;60.93;102070.50;685058;28;1811;-80
2021/12/14 01:19:29;;;;;;;3.92;3.45;;;;;;;10.27;60.83;102072.94;683189;28;1383;-80
2021/12/14 01:19:56;;;;;;;3.95;3.55;;;;;;;10.35;60.49;102081.16;684809;28;1298;-80
2021/12/14 01:20:16;;;;;;;3.80;3.45;;;;;;;10.28;60.41;102073.00;687434;28;1166;-82
2021/12/14 01:20:39;;;;;;;3.88;3.58;;;;;;;10.27;60.54;102062.50;687686;28;1625;-82
2021/12/14 01:21:16;;;;;;;4.38;3.97;;;;;;;10.32;60.39;102076.66;688987;28;1099;-80
2021/12/14 01:22:37;;;;;;;4.55;3.60;;;;;;;10.33;60.57;102077.56;687892;28;1364;-80
2021/12/14 01:23:02;;;;;;;4.40;3.63;;;;;;;10.28;60.57;102072.13;687791;28;1043;-80
2021/12/14 01:23:30;;;;;;;4.57;3.53;;;;;;;10.24;60.73;102063.25;681064;29;1272;-80
2021/12/14 01:24:02;;;;;;;4.68;3.95;;;;;;;10.24;60.83;102065.88;682191;29;1817;-80
2021/12/14 01:25:00;;;;;;;4.07;3.70;;;;;;;10.31;60.49;102072.28;685156;28;1121;-80
2021/12/14 01:25:29;;;;;;;3.63;3.33;;;;;;;10.26;60.27;102061.59;685498;28;1231;-79
2021/12/14 01:25:53;;;;;;;4.00;3.70;;;;;;;10.26;60.53;102063.34;685298;28;819;-82
2021/12/14 01:26:18;;;;;;;4.20;3.80;;;;;;;10.38;60.34;102074.38;687890;28;1351;-80
2021/12/14 01:26:40;;;;;;;4.68;3.65;;;;;;;10.28;60.42;102064.31;687905;28;870;-80
2021/12/14 01:27:07;;;;;;;4.40;3.50;;;;;;;10.33;60.22;102074.97;690641;28;1138;-80
2021/12/14 01:27:52;;;;;;;4.93;3.67;;;;;;;10.28;60.47;102069.53;685741;28;1262;-79
2021/12/14 01:28:17;;;;;;;4.68;3.92;;;;;;;10.27;60.35;102070.34;682571;28;1270;-80
2021/12/14 01:28:41;;;;;;;4.30;3.90;;;;;;;10.32;60.63;102081.00;687816;28;847;-80
2021/12/14 01:29:07;;;;;;;4.28;3.88;;;;;;;10.24;60.27;102070.16;679776;29;1965;-80
2021/12/14 01:29:29;;;;;;;3.90;3.60;;;;;;;10.28;60.30;102070.41;684652;28;1228;-79
2021/12/14 01:29:53;;;;;;;4.20;3.80;;;;;;;10.27;60.51;102078.16;687583;28;1076;-79
2021/12/14 01:30:37;;;;;;;4.38;3.90;;;;;;;10.30;60.19;102074.81;687598;28;1219;-80
2021/12/14 01:31:33;;;;;;;4.28;3.80;;;;;;;10.30;60.43;102086.13;684054;28;1490;-80
2021/12/14 01:31:59;;;;;;;5.05;3.40;;;;;;;10.27;60.57;102081.66;679752;29;1376;-82
2021/12/14 01:32:23;;;;;;;3.80;3.40;;;;;;;10.30;60.30;102088.75;685079;28;1120;-80
2021/12/14 01:32:47;;;;;;;3.80;3.40;;;;;;;10.22;60.26;102071.78;690540;28;1918;-81
2021/12/14 01:33:12;;;;;;;3.80;3.50;;;;;;;10.22;60.50;102082.22;690552;28;985;-81
2021/12/14 01:33:34;;;;;;;3.95;3.60;;;;;;;10.27;60.51;102093.81;682524;28;1367;-81
2021/12/14 01:34:03;;;;;;;4.10;3.70;;;;;;;10.22;60.56;102085.75;683526;28;1414;-80
2021/12/14 01:34:26;;;;;;;4.00;3.42;;;;;;;10.25;60.60;102091.13;685094;28;1131;-81
2021/12/14 01:34:47;;;;;;;3.97;3.50;;;;;;;10.25;60.32;102085.00;687835;28;1093;-81
2021/12/14 01:35:47;;;;;;;4.10;3.70;;;;;;;10.26;60.40;102090.31;690512;28;1693;-80
2021/12/14 01:36:23;;;;;;;4.25;3.88;;;;;;;10.22;60.46;102083.13;690740;28;876;-81
2021/12/14 01:36:49;;;;;;;4.03;3.63;;;;;;;10.21;60.56;102085.66;682661;29;902;-81
2021/12/14 01:37:15;;;;;;;3.60;3.30;;;;;;;10.24;60.46;102096.25;682469;29;1033;-80
2021/12/14 01:37:43;;;;;;;3.90;3.60;;;;;;;10.19;60.30;102084.69;682659;28;1171;-81
2021/12/14 01:38:32;;;;;;;4.30;3.85;;;;;;;10.21;60.32;102086.53;687762;28;989;-81
2021/12/14 01:39:23;;;;;;;4.10;3.70;;;;;;;10.26;60.64;102097.25;684926;28;1530;-81
2021/12/14 01:40:45;;;;;;;3.80;3.50;;;;;;;10.21;60.48;102090.88;686248;28;1084;-81
2021/12/14 01:41:08;;;;;;;4.10;3.70;;;;;;;10.14;60.43;102080.13;687762;28;1135;-82
2021/12/14 01:41:30;;;;;;;4.20;3.80;;;;;;;10.28;60.54;102103.44;688382;28;2035;-81
2021/12/14 01:42:14;;;;;;;4.03;3.70;;;;;;;10.16;60.49;102082.81;693094;28;1250;-81
2021/12/14 01:42:40;;;;;;;4.25;3.85;;;;;;;10.17;60.59;102088.91;690663;28;871;-81
2021/12/14 01:43:01;;;;;;;4.35;4.00;;;;;;;10.17;60.34;102078.47;687565;28;1657;-81
2021/12/14 01:43:31;;;;;;;4.20;3.90;;;;;;;10.24;60.49;102099.78;687449;28;1540;-81
2021/12/14 01:44:15;;;;;;;4.22;3.83;;;;;;;10.25;60.04;102103.25;687757;28;844;-81
2021/12/14 01:44:48;;;;;;;4.03;3.72;;;;;;;10.26;60.52;102107.69;686244;28;1474;-81
2021/12/14 01:45:20;;;;;;;3.58;3.30;;;;;;;10.23;60.52;102092.78;685091;28;1300;-81
2021/12/14 01:45:41;;;;;;;3.70;3.40;;;;;;;10.14;60.57;102085.34;686225;28;1432;-81
2021/12/14 01:46:09;;;;;;;3.90;3.60;;;;;;;10.18;60.37;102091.59;690663;28;1066;-81
2021/12/14 01:46:33;;;;;;;4.20;3.80;;;;;;;10.22;60.38;102100.47;688198;28;1093;-81
2021/12/14 01:47:22;;;;;;;4.43;4.03;;;;;;;10.13;60.54;102083.53;690429;28;1094;-82
2021/12/14 01:48:02;;;;;;;6.15;4.00;;;;;;;10.24;60.64;102107.59;687506;28;1010;-81
2021/12/14 01:48:39;;;;;;;4.72;3.88;;;;;;;10.15;60.61;102091.47;692009;28;1394;-81
2021/12/14 01:49:25;;;;;;;4.32;3.92;;;;;;;10.14;60.34;102087.94;691446;28;1087;-81
2021/12/14 01:50:05;;;;;;;4.05;3.67;;;;;;;10.14;60.51;102090.53;682484;28;1296;-81
2021/12/14 01:51:06;;;;;;;5.00;4.10;;;;;;;10.25;60.49;102104.19;686201;28;1558;-81
2021/12/14 01:52:11;;;;;;;5.50;4.20;;;;;;;10.22;60.58;102104.00;684805;28;1295;-81
2021/12/14 01:52:33;;;;;;;4.35;3.95;;;;;;;10.10;60.53;102088.63;690383;28;1269;-81
2021/12/14 01:52:56;;;;;;;4.50;4.10;;;;;;;10.14;60.59;102089.66;684949;28;1910;-81
2021/12/14 01:53:23;;;;;;;4.53;4.05;;;;;;;10.14;60.32;102090.53;691129;28;1412;-81
2021/12/14 01:53:46;;;;;;;4.40;4.00;;;;;;;10.18;60.59;102098.56;689361;28;844;-81
2021/12/14 01:54:10;;;;;;;4.30;3.90;;;;;;;10.15;60.65;102089.72;690532;28;1061;-80
2021/12/14 01:54:36;;;;;;;4.07;3.70;;;;;;;10.25;60.44;102104.19;687980;28;1114;-80
2021/12/14 01:55:03;;;;;;;4.20;3.80;;;;;;;10.23;60.43;102104.91;687809;28;1359;-81
2021/12/14 01:55:50;;;;;;;4.20;3.80;;;;;;;10.24;60.54;102102.38;685048;28;1162;-81
2021/12/14 01:56:14;;;;;;;4.00;3.70;;;;;;;10.24;60.55;102101.47;687755;28;1144;-81
2021/12/14 01:56:35;;;;;;;4.20;3.72;;;;;;;10.18;60.62;102090.72;682409;29;1387;-81
2021/12/14 01:56:56;;;;;;;5.35;3.90;;;;;;;10.17;60.73;102094.13;691821;28;1447;-81
2021/12/14 01:57:20;;;;;;;5.88;4.20;;;;;;;10.22;60.71;102097.88;685122;28;1052;-81
2021/12/14 01:57:42;;;;;;;4.53;4.03;;;;;;;10.10;60.75;102080.78;685109;28;1463;-81
2021/12/14 01:58:06;;;;;;;4.50;4.10;;;;;;;10.13;60.58;102086.16;685018;28;1273;-81
2021/12/14 01:58:47;;;;;;;4.63;4.20;;;;;;;10.13;60.50;102083.53;691861;28;1366;-81
2021/12/14 01:59:15;;;;;;;5.30;4.10;;;;;;;10.19;60.72;102098.59;684990;28;1044;-81
2021/12/14 01:59:39;;;;;;;5.20;4.00;;;;;;;10.08;60.69;102078.91;685292;28;1137;-81
2021/12/14 02:00:05;;;;;;;4.82;4.07;;;;;;;10.12;60.77;102086.06;688059;28;1208;-82
2021/12/14 02:00:52;;;;;;;4.18;3.80;;;;;;;10.10;60.76;102077.28;678527;29;1510;-81
2021/12/14 02:01:20;;;;;;;4.60;4.20;;;;;;;10.12;61.13;102086.97;684227;28;1256;-81
2021/12/14 02:01:53;;;;;;;4.88;4.40;;;;;;;10.09;61.07;102081.59;685288;28;1250;-81
2021/12/14 02:02:30;;;;;;;4.40;4.00;;;;;;;10.12;60.82;102081.75;695023;28;1081;-81
2021/12/14 02:02:51;;;;;;;4.25;3.85;;;;;;;10.12;60.76;102086.97;693272;28;866;-81
2021/12/14 02:03:14;;;;;;;4.40;4.00;;;;;;;10.19;60.81;102087.28;689831;28;1277;-81
2021/12/14 02:03:41;;;;;;;4.50;4.10;;;;;;;10.17;60.86;102088.91;682365;28;933;-81
2021/12/14 02:04:11;;;;;;;4.88;4.07;;;;;;;10.17;60.87;102094.13;685166;28;1202;-81
2021/12/14 02:04:31;;;;;;;4.85;4.00;;;;;;;10.11;60.64;102085.19;682667;28;1271;-80
2021/12/14 02:04:53;;;;;;;4.35;3.95;;;;;;;10.16;61.05;102088.03;688602;28;941;-81
2021/12/14 02:05:22;;;;;;;4.53;3.97;;;;;;;10.09;60.83;102078.97;684828;28;1266;-81
2021/12/14 02:05:48;;;;;;;4.60;3.80;;;;;;;10.14;60.89;102084.44;686239;28;1656;-81
2021/12/14 02:06:25;;;;;;;4.18;3.70;;;;;;;10.21;60.83;102085.66;687282;28;1382;-81
2021/12/14 02:06:56;;;;;;;4.20;3.90;;;;;;;10.20;60.94;102089.09;682380;28;1404;-81
2021/12/14 02:07:19;;;;;;;4.43;4.05;;;;;;;10.07;60.94;102067.56;685620;28;1238;-81
2021/12/14 02:07:40;;;;;;;5.07;3.97;;;;;;;10.13;60.80;102075.72;687946;28;927;-82
2021/12/14 02:08:21;;;;;;;5.00;3.80;;;;;;;10.15;60.79;102089.72;683434;28;1815;-81
2021/12/14 02:08:44;;;;;;;4.30;3.90;;;;;;;10.05;61.08;102069.22;682538;29;1373;-81
2021/12/14 02:09:10;;;;;;;4.22;3.83;;;;;;;10.17;60.95;102083.69;687611;28;1415;-81
2021/12/14 02:09:33;;;;;;;4.40;4.00;;;;;;;10.05;60.61;102071.81;684376;28;1346;-81
2021/12/14 02:10:01;;;;;;;4.60;4.20;;;;;;;10.10;60.79;102075.56;685407;28;1186;-81
2021/12/14 02:10:29;;;;;;;4.82;4.40;;;;;;;10.08;61.07;102077.19;682359;29;2117;-81
2021/12/14 02:10:52;;;;;;;5.22;4.20;;;;;;;10.07;60.89;102078.00;682123;28;883;-81
2021/12/14 02:11:13;;;;;;;5.38;3.90;;;;;;;10.03;61.21;102068.25;681021;29;1534;-83
2021/12/14 02:11:40;;;;;;;5.20;4.10;;;;;;;10.14;61.18;102085.34;685391;28;849;-81
2021/12/14 02:12:07;;;;;;;4.57;4.18;;;;;;;10.06;60.78;102071.00;687812;28;1076;-81
2021/12/14 02:12:31;;;;;;;4.60;4.20;;;;;;;10.03;61.35;102063.03;685528;28;1568;-81
2021/12/14 02:12:54;;;;;;;4.63;4.22;;;;;;;10.05;61.30;102068.31;685658;28;1960;-81
2021/12/14 02:13:29;;;;;;;4.80;4.40;;;;;;;10.04;61.03;102071.75;690419;28;1201;-81
2021/12/14 02:13:53;;;;;;;4.80;4.30;;;;;;;10.12;61.16;102086.06;687237;28;883;-81
2021/12/14 02:14:18;;;;;;;4.43;4.03;;;;;;;10.06;60.94;102073.63;690859;28;2008;-80
2021/12/14 02:14:39;;;;;;;4.35;3.97;;;;;;;10.07;61.11;102083.22;687779;28;1096;-81
2021/12/14 02:15:16;;;;;;;4.18;3.80;;;;;;;10.09;61.50;102084.19;685207;28;1115;-81
2021/12/14 02:15:43;;;;;;;4.63;4.10;;;;;;;10.03;61.23;102068.25;683989;28;985;-81
2021/12/14 02:16:12;;;;;;;4.57;4.15;;;;;;;10.12;61.10;102086.06;687854;28;1050;-81
2021/12/14 02:16:34;;;;;;;4.22;3.90;;;;;;;10.03;61.08;102055.22;690272;28;1452;-81